Huntington, Wisconsin
Current Conditions -  °F | °C
As of 4:15 AM on Friday 31 Oct 2014 (Local Time) from KRNH Reporting Station
Broken Clouds Broken Clouds  
Wind Chill: 17°   Ceiling: 3800
Heat Index: 28°   Visibility: 10mi
Dew Point: 17°   Wind: 14mph
Humidity: 62%   Direction: 350°N
Pressure: 30.42"   Gusts: 21mph
Location:  45.1804°N, 92.551°W
Report Text: KRNH 310915Z AUTO 35012G18KT 10SM BKN038 M02/M09 A3042 RMK AO2 T10221086
Loading
Personal Weather Stations






























Interactive Weather Map
Tropical Storm Tracking
New forecast layout! Learn more

10-Day Weather Forecast

Advertisements
Track Severe Weather on mobile